sensor_id;sensor_type;location;lat;lon;timestamp;noise_LAeq;noise_LA_min;noise_LA_max;noise_LA01;noise_LA95
72466;Laerm;60471;52.150;4.508;2022-09-09T00:02:22;48.08;42.01;60.68;;
72466;Laerm;60471;52.150;4.508;2022-09-09T00:05:16;49.15;44.37;56.54;;
72466;Laerm;60471;52.150;4.508;2022-09-09T00:07:51;49.52;44.35;57.59;;
72466;Laerm;60471;52.150;4.508;2022-09-09T00:10:28;49.55;44.70;58.52;;
72466;Laerm;60471;52.150;4.508;2022-09-09T00:15:36;49.06;44.06;55.38;;
72466;Laerm;60471;52.150;4.508;2022-09-09T00:20:59;49.94;43.00;58.35;;
72466;Laerm;60471;52.150;4.508;2022-09-09T00:23:39;47.90;42.50;54.46;;
72466;Laerm;60471;52.150;4.508;2022-09-09T00:26:42;47.44;42.11;55.91;;
72466;Laerm;60471;52.150;4.508;2022-09-09T00:31:38;48.47;43.27;57.14;;
72466;Laerm;60471;52.150;4.508;2022-09-09T00:34:15;48.71;44.17;55.61;;
72466;Laerm;60471;52.150;4.508;2022-09-09T00:36:48;48.47;43.33;54.98;;
72466;Laerm;60471;52.150;4.508;2022-09-09T00:39:40;48.61;42.23;55.12;;
72466;Laerm;60471;52.150;4.508;2022-09-09T00:42:17;48.43;42.75;54.79;;
72466;Laerm;60471;52.150;4.508;2022-09-09T00:47:51;48.83;43.30;55.12;;
72466;Laerm;60471;52.150;4.508;2022-09-09T00:50:42;47.98;42.09;55.20;;
72466;Laerm;60471;52.150;4.508;2022-09-09T00:56:20;47.91;42.51;55.83;;
72466;Laerm;60471;52.150;4.508;2022-09-09T01:01:29;47.56;41.86;54.65;;
72466;Laerm;60471;52.150;4.508;2022-09-09T01:03:56;50.66;43.17;60.15;;
72466;Laerm;60471;52.150;4.508;2022-09-09T01:06:37;49.35;42.12;64.77;;
72466;Laerm;60471;52.150;4.508;2022-09-09T01:14:42;47.77;42.43;55.49;;
72466;Laerm;60471;52.150;4.508;2022-09-09T01:17:15;48.52;43.24;54.75;;
72466;Laerm;60471;52.150;4.508;2022-09-09T01:27:49;48.12;43.12;56.86;;
72466;Laerm;60471;52.150;4.508;2022-09-09T01:30:18;48.96;43.31;57.86;;
72466;Laerm;60471;52.150;4.508;2022-09-09T01:32:53;47.92;43.48;54.17;;
72466;Laerm;60471;52.150;4.508;2022-09-09T01:35:37;48.41;43.12;55.69;;
72466;Laerm;60471;52.150;4.508;2022-09-09T01:38:04;50.32;44.67;60.72;;
72466;Laerm;60471;52.150;4.508;2022-09-09T01:40:31;51.03;44.39;64.52;;
72466;Laerm;60471;52.150;4.508;2022-09-09T01:42:58;47.24;42.44;55.05;;
72466;Laerm;60471;52.150;4.508;2022-09-09T01:45:25;48.39;43.30;55.33;;
72466;Laerm;60471;52.150;4.508;2022-09-09T01:47:55;49.86;43.56;58.14;;
72466;Laerm;60471;52.150;4.508;2022-09-09T01:50:23;49.83;45.12;57.49;;
72466;Laerm;60471;52.150;4.508;2022-09-09T01:52:58;50.83;44.60;60.98;;
72466;Laerm;60471;52.150;4.508;2022-09-09T01:55:41;49.22;44.55;57.66;;
72466;Laerm;60471;52.150;4.508;2022-09-09T02:06:56;50.12;44.11;59.69;;
72466;Laerm;60471;52.150;4.508;2022-09-09T02:09:24;51.52;43.89;63.03;;
72466;Laerm;60471;52.150;4.508;2022-09-09T02:12:18;51.40;45.80;61.18;;
72466;Laerm;60471;52.150;4.508;2022-09-09T02:14:55;50.91;45.67;58.17;;
72466;Laerm;60471;52.150;4.508;2022-09-09T02:17:31;50.81;45.46;58.48;;
72466;Laerm;60471;52.150;4.508;2022-09-09T02:20:10;51.32;45.72;57.85;;
72466;Laerm;60471;52.150;4.508;2022-09-09T02:22:42;52.00;45.88;60.43;;
72466;Laerm;60471;52.150;4.508;2022-09-09T02:25:15;50.78;45.73;57.06;;
72466;Laerm;60471;52.150;4.508;2022-09-09T02:27:45;51.15;46.94;58.20;;
72466;Laerm;60471;52.150;4.508;2022-09-09T02:30:14;51.29;46.69;56.69;;
72466;Laerm;60471;52.150;4.508;2022-09-09T02:32:43;52.37;47.22;58.39;;
72466;Laerm;60471;52.150;4.508;2022-09-09T02:35:15;51.82;46.91;59.26;;
72466;Laerm;60471;52.150;4.508;2022-09-09T02:37:44;52.85;47.22;65.35;;
72466;Laerm;60471;52.150;4.508;2022-09-09T02:40:16;52.49;47.14;58.23;;
72466;Laerm;60471;52.150;4.508;2022-09-09T02:42:46;51.34;46.48;58.35;;
72466;Laerm;60471;52.150;4.508;2022-09-09T02:45:18;52.01;46.40;57.65;;
72466;Laerm;60471;52.150;4.508;2022-09-09T02:47:59;52.91;48.22;62.29;;
72466;Laerm;60471;52.150;4.508;2022-09-09T02:50:45;52.29;47.88;61.99;;
72466;Laerm;60471;52.150;4.508;2022-09-09T02:53:23;51.78;46.72;59.39;;
72466;Laerm;60471;52.150;4.508;2022-09-09T02:56:03;52.03;47.82;58.31;;
72466;Laerm;60471;52.150;4.508;2022-09-09T02:58:30;52.60;48.42;58.62;;
72466;Laerm;60471;52.150;4.508;2022-09-09T03:00:57;53.53;48.52;62.35;;
72466;Laerm;60471;52.150;4.508;2022-09-09T03:03:24;53.84;49.33;61.55;;
72466;Laerm;60471;52.150;4.508;2022-09-09T03:05:50;53.20;47.58;59.68;;
72466;Laerm;60471;52.150;4.508;2022-09-09T03:08:16;53.19;47.30;58.87;;
72466;Laerm;60471;52.150;4.508;2022-09-09T03:10:43;53.07;47.57;59.52;;
72466;Laerm;60471;52.150;4.508;2022-09-09T03:13:09;53.39;48.96;59.48;;
72466;Laerm;60471;52.150;4.508;2022-09-09T03:15:37;53.23;48.95;58.12;;
72466;Laerm;60471;52.150;4.508;2022-09-09T03:18:04;53.49;49.05;60.87;;
72466;Laerm;60471;52.150;4.508;2022-09-09T03:20:30;55.55;50.30;63.93;;
72466;Laerm;60471;52.150;4.508;2022-09-09T03:22:58;55.08;50.44;60.51;;
72466;Laerm;60471;52.150;4.508;2022-09-09T03:25:24;54.41;50.00;64.44;;
72466;Laerm;60471;52.150;4.508;2022-09-09T03:27:53;55.50;50.26;63.76;;
72466;Laerm;60471;52.150;4.508;2022-09-09T03:30:23;55.33;50.18;64.81;;
72466;Laerm;60471;52.150;4.508;2022-09-09T03:32:49;56.17;50.93;63.91;;
72466;Laerm;60471;52.150;4.508;2022-09-09T03:35:15;53.91;49.23;59.80;;
72466;Laerm;60471;52.150;4.508;2022-09-09T03:37:42;55.11;50.42;61.09;;
72466;Laerm;60471;52.150;4.508;2022-09-09T03:40:09;55.05;49.36;62.17;;
72466;Laerm;60471;52.150;4.508;2022-09-09T03:42:38;54.98;50.53;62.40;;
72466;Laerm;60471;52.150;4.508;2022-09-09T03:45:09;55.65;50.48;65.35;;
72466;Laerm;60471;52.150;4.508;2022-09-09T03:47:36;55.20;50.16;63.30;;
72466;Laerm;60471;52.150;4.508;2022-09-09T03:50:05;55.20;50.96;60.02;;
72466;Laerm;60471;52.150;4.508;2022-09-09T03:52:39;55.54;51.41;62.77;;
72466;Laerm;60471;52.150;4.508;2022-09-09T03:55:07;56.53;51.28;64.66;;
72466;Laerm;60471;52.150;4.508;2022-09-09T03:57:35;56.15;51.99;64.02;;
72466;Laerm;60471;52.150;4.508;2022-09-09T04:00:07;55.39;51.84;59.38;;
72466;Laerm;60471;52.150;4.508;2022-09-09T04:02:33;57.31;53.05;65.06;;
72466;Laerm;60471;52.150;4.508;2022-09-09T04:04:59;57.36;51.65;63.07;;
72466;Laerm;60471;52.150;4.508;2022-09-09T04:07:26;57.25;52.69;63.38;;
72466;Laerm;60471;52.150;4.508;2022-09-09T04:09:54;57.78;53.11;63.56;;
72466;Laerm;60471;52.150;4.508;2022-09-09T04:12:20;57.93;53.68;64.70;;
72466;Laerm;60471;52.150;4.508;2022-09-09T04:14:48;57.16;52.65;63.24;;
72466;Laerm;60471;52.150;4.508;2022-09-09T04:17:14;56.98;52.42;62.95;;
72466;Laerm;60471;52.150;4.508;2022-09-09T04:19:41;57.64;53.32;63.66;;
72466;Laerm;60471;52.150;4.508;2022-09-09T04:22:08;57.11;52.72;62.10;;
72466;Laerm;60471;52.150;4.508;2022-09-09T04:24:34;56.76;53.02;60.44;;
72466;Laerm;60471;52.150;4.508;2022-09-09T04:27:01;57.51;53.43;62.23;;
72466;Laerm;60471;52.150;4.508;2022-09-09T04:29:27;58.01;54.47;62.63;;
72466;Laerm;60471;52.150;4.508;2022-09-09T04:31:53;58.86;53.55;67.26;;
72466;Laerm;60471;52.150;4.508;2022-09-09T04:34:19;58.05;53.86;62.89;;
72466;Laerm;60471;52.150;4.508;2022-09-09T04:36:45;57.75;53.42;66.14;;
72466;Laerm;60471;52.150;4.508;2022-09-09T04:39:12;60.63;54.82;68.89;;
72466;Laerm;60471;52.150;4.508;2022-09-09T04:41:38;59.36;54.06;65.67;;
72466;Laerm;60471;52.150;4.508;2022-09-09T04:44:04;58.64;53.20;63.48;;
72466;Laerm;60471;52.150;4.508;2022-09-09T04:46:31;59.93;54.38;67.87;;
72466;Laerm;60471;52.150;4.508;2022-09-09T04:48:57;58.88;53.24;67.12;;
72466;Laerm;60471;52.150;4.508;2022-09-09T04:51:23;58.05;53.35;63.79;;
72466;Laerm;60471;52.150;4.508;2022-09-09T04:53:49;59.36;53.58;64.92;;
72466;Laerm;60471;52.150;4.508;2022-09-09T04:56:17;58.01;53.66;62.72;;
72466;Laerm;60471;52.150;4.508;2022-09-09T04:58:44;59.20;53.50;65.32;;
72466;Laerm;60471;52.150;4.508;2022-09-09T05:01:19;57.58;53.26;66.19;;
72466;Laerm;60471;52.150;4.508;2022-09-09T05:03:47;58.34;54.11;65.94;;
72466;Laerm;60471;52.150;4.508;2022-09-09T05:06:19;59.18;54.13;66.05;;
72466;Laerm;60471;52.150;4.508;2022-09-09T05:08:46;59.94;53.79;66.50;;
72466;Laerm;60471;52.150;4.508;2022-09-09T05:11:25;58.98;53.90;64.99;;
72466;Laerm;60471;52.150;4.508;2022-09-09T05:13:53;59.66;54.41;64.64;;
72466;Laerm;60471;52.150;4.508;2022-09-09T05:16:21;59.23;54.03;67.79;;
72466;Laerm;60471;52.150;4.508;2022-09-09T05:18:47;60.68;55.00;68.47;;
72466;Laerm;60471;52.150;4.508;2022-09-09T05:21:15;58.29;53.26;64.73;;
72466;Laerm;60471;52.150;4.508;2022-09-09T05:23:42;58.56;53.97;64.66;;
72466;Laerm;60471;52.150;4.508;2022-09-09T05:26:14;58.58;53.64;65.99;;
72466;Laerm;60471;52.150;4.508;2022-09-09T05:28:41;58.94;54.21;67.30;;
72466;Laerm;60471;52.150;4.508;2022-09-09T05:31:09;60.67;53.59;70.03;;
72466;Laerm;60471;52.150;4.508;2022-09-09T05:33:40;59.54;54.34;70.11;;
72466;Laerm;60471;52.150;4.508;2022-09-09T05:36:13;58.74;54.62;66.33;;
72466;Laerm;60471;52.150;4.508;2022-09-09T05:38:41;58.87;54.33;65.35;;
72466;Laerm;60471;52.150;4.508;2022-09-09T05:41:09;59.28;54.63;66.21;;
72466;Laerm;60471;52.150;4.508;2022-09-09T05:43:38;60.63;54.96;67.27;;
72466;Laerm;60471;52.150;4.508;2022-09-09T05:46:10;60.15;55.15;71.42;;
72466;Laerm;60471;52.150;4.508;2022-09-09T05:48:43;60.03;54.69;72.99;;
72466;Laerm;60471;52.150;4.508;2022-09-09T05:51:12;60.52;55.47;66.70;;
72466;Laerm;60471;52.150;4.508;2022-09-09T05:53:39;60.57;54.63;68.56;;
72466;Laerm;60471;52.150;4.508;2022-09-09T05:56:11;58.33;51.91;63.97;;
72466;Laerm;60471;52.150;4.508;2022-09-09T05:58:38;60.13;55.28;66.47;;
72466;Laerm;60471;52.150;4.508;2022-09-09T06:03:43;59.04;53.16;65.21;;
72466;Laerm;60471;52.150;4.508;2022-09-09T06:06:13;59.33;52.31;68.16;;
72466;Laerm;60471;52.150;4.508;2022-09-09T06:08:42;59.18;53.33;65.72;;
72466;Laerm;60471;52.150;4.508;2022-09-09T06:11:19;59.43;53.47;67.07;;
72466;Laerm;60471;52.150;4.508;2022-09-09T06:13:45;58.56;52.99;65.76;;
72466;Laerm;60471;52.150;4.508;2022-09-09T06:16:17;59.57;52.22;68.81;;
72466;Laerm;60471;52.150;4.508;2022-09-09T06:18:44;59.70;52.56;77.68;;
72466;Laerm;60471;52.150;4.508;2022-09-09T06:21:28;59.87;53.92;69.38;;
72466;Laerm;60471;52.150;4.508;2022-09-09T06:23:55;58.41;53.22;67.00;;
72466;Laerm;60471;52.150;4.508;2022-09-09T06:26:27;60.05;53.30;67.38;;
72466;Laerm;60471;52.150;4.508;2022-09-09T06:28:56;57.95;53.15;74.70;;
72466;Laerm;60471;52.150;4.508;2022-09-09T06:31:26;58.98;53.41;72.25;;
72466;Laerm;60471;52.150;4.508;2022-09-09T06:33:57;58.85;53.56;65.43;;
72466;Laerm;60471;52.150;4.508;2022-09-09T06:36:36;59.19;53.31;68.23;;
72466;Laerm;60471;52.150;4.508;2022-09-09T06:39:04;59.58;52.36;70.17;;
72466;Laerm;60471;52.150;4.508;2022-09-09T06:41:32;59.88;53.94;65.88;;
72466;Laerm;60471;52.150;4.508;2022-09-09T06:43:59;59.36;54.01;65.38;;
72466;Laerm;60471;52.150;4.508;2022-09-09T06:46:29;60.00;54.71;67.04;;
72466;Laerm;60471;52.150;4.508;2022-09-09T06:48:59;60.41;54.58;81.55;;
72466;Laerm;60471;52.150;4.508;2022-09-09T06:51:29;59.17;51.86;66.64;;
72466;Laerm;60471;52.150;4.508;2022-09-09T06:53:59;58.98;53.11;76.26;;
72466;Laerm;60471;52.150;4.508;2022-09-09T06:56:38;61.54;53.06;75.35;;
72466;Laerm;60471;52.150;4.508;2022-09-09T06:59:09;57.99;52.15;71.62;;
72466;Laerm;60471;52.150;4.508;2022-09-09T07:01:38;58.51;52.05;73.38;;
72466;Laerm;60471;52.150;4.508;2022-09-09T07:04:07;59.19;53.41;70.39;;
72466;Laerm;60471;52.150;4.508;2022-09-09T07:06:38;60.39;52.45;70.35;;
72466;Laerm;60471;52.150;4.508;2022-09-09T07:09:08;58.95;51.77;80.92;;
72466;Laerm;60471;52.150;4.508;2022-09-09T07:11:41;58.61;51.75;77.78;;
72466;Laerm;60471;52.150;4.508;2022-09-09T07:14:08;58.56;53.43;66.21;;
72466;Laerm;60471;52.150;4.508;2022-09-09T07:16:35;58.37;53.39;72.52;;
72466;Laerm;60471;52.150;4.508;2022-09-09T07:19:04;58.15;52.75;79.85;;
72466;Laerm;60471;52.150;4.508;2022-09-09T07:21:32;58.60;52.49;67.35;;
72466;Laerm;60471;52.150;4.508;2022-09-09T07:24:00;58.39;52.23;79.91;;
72466;Laerm;60471;52.150;4.508;2022-09-09T07:26:29;57.15;51.25;66.98;;
72466;Laerm;60471;52.150;4.508;2022-09-09T07:28:57;59.78;52.08;71.99;;
72466;Laerm;60471;52.150;4.508;2022-09-09T07:31:36;60.11;52.87;67.58;;
72466;Laerm;60471;52.150;4.508;2022-09-09T07:34:03;57.75;50.96;63.43;;
72466;Laerm;60471;52.150;4.508;2022-09-09T07:36:33;59.20;52.42;73.56;;
72466;Laerm;60471;52.150;4.508;2022-09-09T07:39:07;62.20;52.70;74.39;;
72466;Laerm;60471;52.150;4.508;2022-09-09T07:41:40;58.02;52.62;66.75;;
72466;Laerm;60471;52.150;4.508;2022-09-09T07:44:16;59.08;52.44;74.13;;
72466;Laerm;60471;52.150;4.508;2022-09-09T07:46:44;58.40;51.85;81.38;;
72466;Laerm;60471;52.150;4.508;2022-09-09T07:49:11;59.10;53.47;67.18;;
72466;Laerm;60471;52.150;4.508;2022-09-09T07:51:42;58.72;53.51;72.33;;
72466;Laerm;60471;52.150;4.508;2022-09-09T07:54:13;58.85;53.31;71.96;;
72466;Laerm;60471;52.150;4.508;2022-09-09T07:56:40;57.69;52.97;70.36;;
72466;Laerm;60471;52.150;4.508;2022-09-09T07:59:07;58.66;52.66;74.78;;
72466;Laerm;60471;52.150;4.508;2022-09-09T08:01:41;59.75;52.16;70.84;;
72466;Laerm;60471;52.150;4.508;2022-09-09T08:04:12;59.82;54.05;75.03;;
72466;Laerm;60471;52.150;4.508;2022-09-09T08:06:48;58.68;53.15;71.44;;
72466;Laerm;60471;52.150;4.508;2022-09-09T08:09:15;58.13;51.49;65.67;;
72466;Laerm;60471;52.150;4.508;2022-09-09T08:11:42;61.04;51.38;83.89;;
72466;Laerm;60471;52.150;4.508;2022-09-09T08:14:11;59.74;51.96;80.16;;
72466;Laerm;60471;52.150;4.508;2022-09-09T08:16:41;58.41;52.14;73.62;;
72466;Laerm;60471;52.150;4.508;2022-09-09T08:19:08;59.35;52.77;81.10;;
72466;Laerm;60471;52.150;4.508;2022-09-09T08:21:38;58.60;51.89;79.37;;
72466;Laerm;60471;52.150;4.508;2022-09-09T08:24:08;57.91;52.18;71.24;;
72466;Laerm;60471;52.150;4.508;2022-09-09T08:26:45;57.99;51.34;77.16;;
72466;Laerm;60471;52.150;4.508;2022-09-09T08:29:14;60.71;53.86;77.01;;
72466;Laerm;60471;52.150;4.508;2022-09-09T08:31:47;60.75;52.79;80.06;;
72466;Laerm;60471;52.150;4.508;2022-09-09T08:34:14;58.65;53.72;74.52;;
72466;Laerm;60471;52.150;4.508;2022-09-09T08:36:44;58.01;52.91;71.28;;
72466;Laerm;60471;52.150;4.508;2022-09-09T08:39:14;58.35;53.15;69.59;;
72466;Laerm;60471;52.150;4.508;2022-09-09T08:48:01;58.35;52.76;77.20;;
72466;Laerm;60471;52.150;4.508;2022-09-09T08:50:36;59.33;52.86;74.21;;
72466;Laerm;60471;52.150;4.508;2022-09-09T08:53:37;59.21;52.52;73.60;;
72466;Laerm;60471;52.150;4.508;2022-09-09T08:56:14;58.25;52.69;74.94;;
72466;Laerm;60471;52.150;4.508;2022-09-09T08:58:49;59.68;53.69;71.51;;
72466;Laerm;60471;52.150;4.508;2022-09-09T09:04:28;57.95;52.12;65.99;;
72466;Laerm;60471;52.150;4.508;2022-09-09T09:12:52;59.18;53.28;80.03;;
72466;Laerm;60471;52.150;4.508;2022-09-09T09:15:25;57.47;51.86;70.33;;
72466;Laerm;60471;52.150;4.508;2022-09-09T09:17:53;56.84;51.11;71.61;;
72466;Laerm;60471;52.150;4.508;2022-09-09T09:20:46;58.19;52.34;69.15;;
72466;Laerm;60471;52.150;4.508;2022-09-09T09:23:25;59.18;53.28;72.61;;
72466;Laerm;60471;52.150;4.508;2022-09-09T09:26:01;61.20;53.87;69.12;;
72466;Laerm;60471;52.150;4.508;2022-09-09T09:28:32;58.64;52.47;68.47;;
72466;Laerm;60471;52.150;4.508;2022-09-09T09:31:12;57.02;50.79;66.33;;
72466;Laerm;60471;52.150;4.508;2022-09-09T09:33:50;59.81;52.81;68.07;;
72466;Laerm;60471;52.150;4.508;2022-09-09T09:36:54;60.88;53.87;69.08;;
72466;Laerm;60471;52.150;4.508;2022-09-09T09:39:29;60.72;52.96;68.99;;
72466;Laerm;60471;52.150;4.508;2022-09-09T09:41:56;59.48;52.56;68.67;;
72466;Laerm;60471;52.150;4.508;2022-09-09T09:44:29;59.29;52.78;64.98;;
72466;Laerm;60471;52.150;4.508;2022-09-09T09:47:07;58.90;52.10;66.04;;
72466;Laerm;60471;52.150;4.508;2022-09-09T09:49:33;59.03;52.38;67.19;;
72466;Laerm;60471;52.150;4.508;2022-09-09T09:52:02;60.27;53.05;66.72;;
72466;Laerm;60471;52.150;4.508;2022-09-09T09:54:33;57.82;51.07;66.12;;
72466;Laerm;60471;52.150;4.508;2022-09-09T09:57:13;59.42;51.88;69.07;;
72466;Laerm;60471;52.150;4.508;2022-09-09T09:59:41;59.57;53.08;75.00;;
72466;Laerm;60471;52.150;4.508;2022-09-09T10:02:25;59.84;52.79;71.23;;
72466;Laerm;60471;52.150;4.508;2022-09-09T10:07:39;58.48;53.63;71.49;;
72466;Laerm;60471;52.150;4.508;2022-09-09T10:10:20;58.34;51.94;80.31;;
72466;Laerm;60471;52.150;4.508;2022-09-09T10:13:05;57.40;51.26;70.42;;
72466;Laerm;60471;52.150;4.508;2022-09-09T10:16:08;58.72;51.73;71.32;;
72466;Laerm;60471;52.150;4.508;2022-09-09T10:27:19;61.82;52.90;78.33;;
72466;Laerm;60471;52.150;4.508;2022-09-09T10:30:26;60.11;53.58;68.33;;
72466;Laerm;60471;52.150;4.508;2022-09-09T10:33:12;59.53;53.79;68.20;;
72466;Laerm;60471;52.150;4.508;2022-09-09T10:38:39;59.17;53.41;68.84;;
72466;Laerm;60471;52.150;4.508;2022-09-09T10:41:18;59.58;52.97;73.95;;
72466;Laerm;60471;52.150;4.508;2022-09-09T10:56:18;58.22;52.71;67.45;;
72466;Laerm;60471;52.150;4.508;2022-09-09T11:01:25;59.02;52.83;74.91;;
72466;Laerm;60471;52.150;4.508;2022-09-09T11:04:01;59.28;53.53;79.12;;
72466;Laerm;60471;52.150;4.508;2022-09-09T11:06:39;59.29;53.44;80.39;;
72466;Laerm;60471;52.150;4.508;2022-09-09T11:09:16;61.05;54.92;77.63;;
72466;Laerm;60471;52.150;4.508;2022-09-09T11:11:58;59.69;53.30;81.27;;
72466;Laerm;60471;52.150;4.508;2022-09-09T11:14:48;59.82;52.71;75.06;;
72466;Laerm;60471;52.150;4.508;2022-09-09T11:17:21;60.33;54.35;82.38;;
72466;Laerm;60471;52.150;4.508;2022-09-09T11:19:48;60.85;53.48;78.29;;
72466;Laerm;60471;52.150;4.508;2022-09-09T11:25:19;59.73;52.58;78.37;;
72466;Laerm;60471;52.150;4.508;2022-09-09T11:28:36;61.51;52.74;80.85;;
72466;Laerm;60471;52.150;4.508;2022-09-09T11:34:01;59.53;53.66;76.44;;
72466;Laerm;60471;52.150;4.508;2022-09-09T11:36:49;59.19;52.21;76.83;;
72466;Laerm;60471;52.150;4.508;2022-09-09T11:44:38;59.68;52.35;77.16;;
72466;Laerm;60471;52.150;4.508;2022-09-09T11:47:26;60.11;53.62;70.02;;
72466;Laerm;60471;52.150;4.508;2022-09-09T11:52:44;57.60;51.57;71.87;;
72466;Laerm;60471;52.150;4.508;2022-09-09T12:00:41;60.17;55.16;71.89;;
72466;Laerm;60471;52.150;4.508;2022-09-09T12:06:00;60.58;54.84;66.69;;
72466;Laerm;60471;52.150;4.508;2022-09-09T12:08:35;60.75;55.02;67.40;;
72466;Laerm;60471;52.150;4.508;2022-09-09T12:11:02;60.00;54.69;72.28;;
72466;Laerm;60471;52.150;4.508;2022-09-09T12:13:30;59.44;53.80;69.06;;
72466;Laerm;60471;52.150;4.508;2022-09-09T12:15:59;59.65;54.92;70.80;;
72466;Laerm;60471;52.150;4.508;2022-09-09T12:18:36;59.91;54.08;74.50;;
72466;Laerm;60471;52.150;4.508;2022-09-09T12:24:09;60.91;54.05;67.47;;
72466;Laerm;60471;52.150;4.508;2022-09-09T12:26:55;60.08;53.84;69.86;;
72466;Laerm;60471;52.150;4.508;2022-09-09T12:29:57;59.49;54.20;70.16;;
72466;Laerm;60471;52.150;4.508;2022-09-09T12:32:26;60.22;53.22;79.14;;
72466;Laerm;60471;52.150;4.508;2022-09-09T12:35:10;59.76;53.72;74.38;;
72466;Laerm;60471;52.150;4.508;2022-09-09T12:38:01;58.86;52.44;64.81;;
72466;Laerm;60471;52.150;4.508;2022-09-09T12:40:34;59.02;53.58;68.10;;
72466;Laerm;60471;52.150;4.508;2022-09-09T12:43:21;59.38;54.23;73.48;;
72466;Laerm;60471;52.150;4.508;2022-09-09T12:45:52;59.08;53.66;72.74;;
72466;Laerm;60471;52.150;4.508;2022-09-09T12:48:31;59.61;53.11;78.48;;
72466;Laerm;60471;52.150;4.508;2022-09-09T12:50:59;60.02;53.46;81.05;;
72466;Laerm;60471;52.150;4.508;2022-09-09T12:53:34;60.10;53.22;76.07;;
72466;Laerm;60471;52.150;4.508;2022-09-09T12:56:08;59.27;53.87;75.72;;
72466;Laerm;60471;52.150;4.508;2022-09-09T12:58:37;59.62;54.36;65.68;;
72466;Laerm;60471;52.150;4.508;2022-09-09T13:01:05;58.25;52.78;71.26;;
72466;Laerm;60471;52.150;4.508;2022-09-09T13:03:42;59.05;53.10;71.66;;
72466;Laerm;60471;52.150;4.508;2022-09-09T13:06:19;59.02;53.59;66.22;;
72466;Laerm;60471;52.150;4.508;2022-09-09T13:08:51;59.75;53.34;67.73;;
72466;Laerm;60471;52.150;4.508;2022-09-09T13:11:23;59.60;53.54;65.49;;
72466;Laerm;60471;52.150;4.508;2022-09-09T13:13:56;59.42;54.22;71.61;;
72466;Laerm;60471;52.150;4.508;2022-09-09T13:16:29;59.65;53.43;75.36;;
72466;Laerm;60471;52.150;4.508;2022-09-09T13:19:06;58.92;53.74;72.95;;
72466;Laerm;60471;52.150;4.508;2022-09-09T13:21:35;58.96;52.99;69.16;;
72466;Laerm;60471;52.150;4.508;2022-09-09T13:26:59;60.50;52.40;73.46;;
72466;Laerm;60471;52.150;4.508;2022-09-09T13:29:29;58.93;52.68;65.36;;
72466;Laerm;60471;52.150;4.508;2022-09-09T13:32:16;59.19;51.02;65.65;;
72466;Laerm;60471;52.150;4.508;2022-09-09T13:34:56;58.86;51.55;66.93;;
72466;Laerm;60471;52.150;4.508;2022-09-09T13:37:37;59.88;54.46;68.31;;
72466;Laerm;60471;52.150;4.508;2022-09-09T13:40:20;59.27;51.61;66.53;;
72466;Laerm;60471;52.150;4.508;2022-09-09T13:42:52;58.46;51.40;67.06;;
72466;Laerm;60471;52.150;4.508;2022-09-09T13:45:24;58.20;51.11;67.55;;
72466;Laerm;60471;52.150;4.508;2022-09-09T13:47:54;60.44;53.43;67.33;;
72466;Laerm;60471;52.150;4.508;2022-09-09T13:50:27;59.11;53.60;66.30;;
72466;Laerm;60471;52.150;4.508;2022-09-09T13:52:57;59.70;53.85;69.81;;
72466;Laerm;60471;52.150;4.508;2022-09-09T13:55:27;59.63;53.63;69.06;;
72466;Laerm;60471;52.150;4.508;2022-09-09T13:57:58;58.44;52.27;68.87;;
72466;Laerm;60471;52.150;4.508;2022-09-09T14:00:29;59.77;53.38;80.71;;
72466;Laerm;60471;52.150;4.508;2022-09-09T14:02:56;58.72;52.50;69.08;;
72466;Laerm;60471;52.150;4.508;2022-09-09T14:05:22;59.41;54.04;77.38;;
72466;Laerm;60471;52.150;4.508;2022-09-09T14:07:49;60.74;52.66;69.71;;
72466;Laerm;60471;52.150;4.508;2022-09-09T14:10:16;60.77;54.20;81.32;;
72466;Laerm;60471;52.150;4.508;2022-09-09T14:12:42;59.98;53.85;66.08;;
72466;Laerm;60471;52.150;4.508;2022-09-09T14:15:11;58.52;52.64;64.89;;
72466;Laerm;60471;52.150;4.508;2022-09-09T14:17:37;61.31;54.79;69.79;;
72466;Laerm;60471;52.150;4.508;2022-09-09T14:20:05;60.14;54.56;67.49;;
72466;Laerm;60471;52.150;4.508;2022-09-09T14:22:35;60.55;53.68;67.21;;
72466;Laerm;60471;52.150;4.508;2022-09-09T14:25:03;60.41;54.24;67.93;;
72466;Laerm;60471;52.150;4.508;2022-09-09T14:27:30;59.20;53.81;65.92;;
72466;Laerm;60471;52.150;4.508;2022-09-09T14:29:56;60.54;54.20;67.28;;
72466;Laerm;60471;52.150;4.508;2022-09-09T14:32:23;59.98;53.34;68.63;;
72466;Laerm;60471;52.150;4.508;2022-09-09T14:34:49;61.42;54.94;66.41;;
72466;Laerm;60471;52.150;4.508;2022-09-09T14:37:17;59.97;54.26;65.70;;
72466;Laerm;60471;52.150;4.508;2022-09-09T14:39:44;60.26;54.48;66.70;;
72466;Laerm;60471;52.150;4.508;2022-09-09T14:42:10;60.62;55.62;67.04;;
72466;Laerm;60471;52.150;4.508;2022-09-09T14:44:38;60.71;53.23;71.96;;
72466;Laerm;60471;52.150;4.508;2022-09-09T14:47:08;59.29;52.65;73.26;;
72466;Laerm;60471;52.150;4.508;2022-09-09T14:49:35;64.51;53.82;89.97;;
72466;Laerm;60471;52.150;4.508;2022-09-09T14:52:02;59.71;53.35;77.40;;
72466;Laerm;60471;52.150;4.508;2022-09-09T14:54:28;60.00;51.57;66.75;;
72466;Laerm;60471;52.150;4.508;2022-09-09T14:56:55;59.87;51.72;71.63;;
72466;Laerm;60471;52.150;4.508;2022-09-09T14:59:23;59.88;53.17;71.39;;
72466;Laerm;60471;52.150;4.508;2022-09-09T15:01:49;59.08;52.45;65.54;;
72466;Laerm;60471;52.150;4.508;2022-09-09T15:04:15;65.56;53.65;78.68;;
72466;Laerm;60471;52.150;4.508;2022-09-09T15:06:43;58.09;52.45;65.31;;
72466;Laerm;60471;52.150;4.508;2022-09-09T15:09:12;59.31;52.96;66.03;;
72466;Laerm;60471;52.150;4.508;2022-09-09T15:11:39;58.93;53.21;66.60;;
72466;Laerm;60471;52.150;4.508;2022-09-09T15:14:08;58.77;51.15;67.43;;
72466;Laerm;60471;52.150;4.508;2022-09-09T15:16:35;58.32;51.63;66.74;;
72466;Laerm;60471;52.150;4.508;2022-09-09T15:19:03;57.69;51.94;66.04;;
72466;Laerm;60471;52.150;4.508;2022-09-09T15:21:35;57.86;50.74;64.20;;
72466;Laerm;60471;52.150;4.508;2022-09-09T15:24:02;58.40;51.20;69.28;;
72466;Laerm;60471;52.150;4.508;2022-09-09T15:26:30;58.99;51.87;69.74;;
72466;Laerm;60471;52.150;4.508;2022-09-09T15:28:56;58.81;52.11;67.31;;
72466;Laerm;60471;52.150;4.508;2022-09-09T15:31:29;58.97;51.66;65.90;;
72466;Laerm;60471;52.150;4.508;2022-09-09T15:34:00;59.34;52.52;69.16;;
72466;Laerm;60471;52.150;4.508;2022-09-09T15:39:04;59.89;53.40;68.67;;
72466;Laerm;60471;52.150;4.508;2022-09-09T15:41:31;58.93;53.50;65.19;;
72466;Laerm;60471;52.150;4.508;2022-09-09T15:43:57;60.08;53.58;67.25;;
72466;Laerm;60471;52.150;4.508;2022-09-09T15:46:34;59.76;53.56;67.16;;
72466;Laerm;60471;52.150;4.508;2022-09-09T15:49:11;59.25;52.47;66.59;;
72466;Laerm;60471;52.150;4.508;2022-09-09T15:51:42;58.96;53.21;66.25;;
72466;Laerm;60471;52.150;4.508;2022-09-09T15:54:13;59.16;54.24;68.29;;
72466;Laerm;60471;52.150;4.508;2022-09-09T15:56:40;59.27;54.11;65.41;;
72466;Laerm;60471;52.150;4.508;2022-09-09T15:59:07;59.42;52.98;69.81;;
72466;Laerm;60471;52.150;4.508;2022-09-09T16:01:34;59.77;53.79;72.11;;
72466;Laerm;60471;52.150;4.508;2022-09-09T16:04:01;59.06;53.97;68.22;;
72466;Laerm;60471;52.150;4.508;2022-09-09T16:06:28;59.00;53.12;65.41;;
72466;Laerm;60471;52.150;4.508;2022-09-09T16:08:57;58.59;52.78;65.25;;